Time;durP1;ratioP1;P1;durP2;ratioP2;P2;SDS_P1;SDS_P2;PMS_P1;PMS_P2;Temp;Humidity;BMP_temperature;BMP_pressure;BME280_temperature;BME280_humidity;BME280_pressure;Samples;Min_cycle;Max_cycle;Signal;HPM_P1;HPM_P2
2021/09/04 00:00:15;;;;;;;4.45;3.97;;;;;;;;;;5073123;28;20216;-83
2021/09/04 00:02:42;;;;;;;4.55;4.07;;;;;;;;;;5074783;28;20224;-83
2021/09/04 00:05:11;;;;;;;4.30;3.80;;;;;;;;;;5074358;28;20192;-83
2021/09/04 00:07:38;;;;;;;4.30;3.90;;;;;;;;;;5074197;28;20185;-83
2021/09/04 00:10:07;;;;;;;4.50;4.10;;;;;;;;;;5073903;28;20181;-83
2021/09/04 00:12:34;;;;;;;4.72;4.05;;;;;;;;;;5074034;28;20566;-83
2021/09/04 00:15:04;;;;;;;5.43;4.70;;;;;;;;;;5074207;28;20195;-82
2021/09/04 00:17:33;;;;;;;5.75;3.92;;;;;;;;;;5074263;28;20200;-81
2021/09/04 00:20:00;;;;;;;4.70;4.05;;;;;;;;;;5074058;28;20221;-82
2021/09/04 00:22:29;;;;;;;6.05;5.50;;;;;;;;;;5073930;28;20659;-83
2021/09/04 00:24:56;;;;;;;4.30;3.90;;;;;;;;;;5074723;28;20196;-83
2021/09/04 00:27:24;;;;;;;5.00;4.50;;;;;;;;;;5073672;28;20213;-82
2021/09/04 00:29:51;;;;;;;4.35;3.95;;;;;;;;;;5073913;28;20204;-82
2021/09/04 00:32:19;;;;;;;11.82;5.22;;;;;;;;;;5073941;28;20185;-83
2021/09/04 00:34:49;;;;;;;5.10;4.60;;;;;;;;;;5073601;28;20663;-82
2021/09/04 00:37:16;;;;;;;6.32;4.30;;;;;;;;;;5073726;28;20630;-82
2021/09/04 00:39:43;;;;;;;4.85;4.40;;;;;;;;;;5073388;28;20221;-83
2021/09/04 00:42:12;;;;;;;5.38;4.43;;;;;;;;;;5073782;28;20196;-83
2021/09/04 00:44:40;;;;;;;5.35;4.85;;;;;;;;;;5074237;28;20185;-83
2021/09/04 00:47:08;;;;;;;5.65;5.03;;;;;;;;;;5073248;28;20217;-83
2021/09/04 00:49:37;;;;;;;7.13;4.78;;;;;;;;;;5073917;28;20182;-83
2021/09/04 00:52:08;;;;;;;6.38;4.65;;;;;;;;;;5073523;28;20189;-83
2021/09/04 00:54:36;;;;;;;5.35;4.85;;;;;;;;;;5074088;28;20661;-83
2021/09/04 00:57:04;;;;;;;4.55;4.13;;;;;;;;;;5073617;28;20224;-82
2021/09/04 00:59:32;;;;;;;5.60;5.10;;;;;;;;;;5073598;28;20190;-83
2021/09/04 01:01:59;;;;;;;6.53;4.70;;;;;;;;;;5073244;28;20196;-83
2021/09/04 01:04:27;;;;;;;4.80;4.38;;;;;;;;;;5072981;28;20201;-82
2021/09/04 01:06:55;;;;;;;4.85;4.03;;;;;;;;;;5073328;28;20238;-82
2021/09/04 01:09:24;;;;;;;4.80;3.97;;;;;;;;;;5073184;28;20204;-83
2021/09/04 01:11:52;;;;;;;5.75;3.78;;;;;;;;;;5073590;28;20189;-83
2021/09/04 01:14:19;;;;;;;4.88;4.05;;;;;;;;;;5073456;28;20186;-82
2021/09/04 01:16:47;;;;;;;4.55;4.15;;;;;;;;;;5073630;28;20231;-83
2021/09/04 01:19:14;;;;;;;7.07;5.32;;;;;;;;;;5073288;28;20204;-83
2021/09/04 01:21:42;;;;;;;6.47;5.30;;;;;;;;;;5072872;28;20225;-83
2021/09/04 01:24:10;;;;;;;5.18;4.63;;;;;;;;;;5073124;28;20205;-83
2021/09/04 01:26:39;;;;;;;7.15;6.07;;;;;;;;;;5073606;28;20217;-83
2021/09/04 01:29:07;;;;;;;6.22;5.13;;;;;;;;;;5072945;28;20209;-83
2021/09/04 01:31:34;;;;;;;5.50;4.97;;;;;;;;;;5073065;28;20189;-83
2021/09/04 01:34:02;;;;;;;7.68;5.57;;;;;;;;;;5073337;28;20209;-83
2021/09/04 01:36:33;;;;;;;7.78;4.93;;;;;;;;;;5073173;28;20312;-82
2021/09/04 01:39:02;;;;;;;6.40;5.32;;;;;;;;;;5073119;28;20181;-83
2021/09/04 01:41:30;;;;;;;6.05;5.38;;;;;;;;;;5073119;28;20208;-82
2021/09/04 01:43:59;;;;;;;6.93;5.35;;;;;;;;;;5073062;28;20186;-82
2021/09/04 01:46:27;;;;;;;7.05;5.75;;;;;;;;;;5072580;28;20225;-83
2021/09/04 01:48:55;;;;;;;6.03;5.43;;;;;;;;;;5072947;28;20197;-82
2021/09/04 01:51:22;;;;;;;5.28;4.78;;;;;;;;;;5073092;28;20180;-82
2021/09/04 01:53:50;;;;;;;8.85;5.88;;;;;;;;;;5072528;28;20236;-82
2021/09/04 01:56:17;;;;;;;9.65;6.80;;;;;;;;;;5073094;28;20217;-82
2021/09/04 01:58:45;;;;;;;7.45;5.65;;;;;;;;;;5072784;28;20663;-83
2021/09/04 02:01:14;;;;;;;6.90;5.65;;;;;;;;;;5074455;28;20698;-82
2021/09/04 02:03:41;;;;;;;7.35;5.85;;;;;;;;;;5077165;28;20184;-82
2021/09/04 02:06:09;;;;;;;6.88;5.40;;;;;;;;;;5076063;28;20224;-82
2021/09/04 02:08:37;;;;;;;6.45;5.30;;;;;;;;;;5076057;28;20242;-83
2021/09/04 02:11:04;;;;;;;6.80;5.65;;;;;;;;;;5076597;28;20185;-82
2021/09/04 02:13:31;;;;;;;6.18;5.57;;;;;;;;;;5076797;28;20205;-83
2021/09/04 02:15:59;;;;;;;7.30;5.68;;;;;;;;;;5076685;28;20227;-83
2021/09/04 02:18:29;;;;;;;7.93;6.28;;;;;;;;;;5076013;28;20628;-82
2021/09/04 02:20:56;;;;;;;7.68;6.38;;;;;;;;;;5076487;28;20240;-82
2021/09/04 02:23:24;;;;;;;6.28;5.50;;;;;;;;;;5075802;28;20204;-83
2021/09/04 02:25:51;;;;;;;7.93;5.80;;;;;;;;;;5076334;28;20221;-83
2021/09/04 02:28:19;;;;;;;6.65;5.65;;;;;;;;;;5076314;28;20196;-83
2021/09/04 02:30:46;;;;;;;7.43;6.47;;;;;;;;;;5076692;28;20186;-83
2021/09/04 02:33:14;;;;;;;7.40;5.50;;;;;;;;;;5078493;28;20197;-83
2021/09/04 02:35:43;;;;;;;6.20;5.60;;;;;;;;;;5076589;28;20221;-83
2021/09/04 02:38:11;;;;;;;5.78;5.13;;;;;;;;;;5075988;28;20207;-83
2021/09/04 02:40:38;;;;;;;5.72;4.82;;;;;;;;;;5075629;28;20209;-82
2021/09/04 02:43:06;;;;;;;5.88;5.38;;;;;;;;;;5075546;28;20193;-83
2021/09/04 02:45:33;;;;;;;5.88;5.28;;;;;;;;;;5075657;28;20225;-83
2021/09/04 02:48:01;;;;;;;7.65;5.97;;;;;;;;;;5075815;28;20192;-82
2021/09/04 02:50:28;;;;;;;6.25;5.63;;;;;;;;;;5075210;28;20181;-83
2021/09/04 02:52:57;;;;;;;6.50;5.90;;;;;;;;;;5075214;28;20223;-83
2021/09/04 02:55:25;;;;;;;8.88;6.20;;;;;;;;;;5075235;28;20225;-83
2021/09/04 02:57:52;;;;;;;7.70;6.25;;;;;;;;;;5074576;28;20201;-82
2021/09/04 03:00:19;;;;;;;6.85;6.15;;;;;;;;;;5075760;28;20201;-82
2021/09/04 03:02:48;;;;;;;6.82;6.13;;;;;;;;;;5075265;28;20217;-83
2021/09/04 03:05:18;;;;;;;7.97;7.18;;;;;;;;;;5075386;28;20212;-83
2021/09/04 03:07:45;;;;;;;8.02;5.88;;;;;;;;;;5075406;28;20201;-83
2021/09/04 03:10:14;;;;;;;7.55;5.50;;;;;;;;;;5075539;28;20181;-83
2021/09/04 03:12:41;;;;;;;8.27;6.28;;;;;;;;;;5075269;28;20177;-83
2021/09/04 03:15:10;;;;;;;7.22;6.13;;;;;;;;;;5075125;28;20178;-83
2021/09/04 03:17:37;;;;;;;6.85;6.20;;;;;;;;;;5075662;28;20185;-83
2021/09/04 03:20:07;;;;;;;8.70;7.20;;;;;;;;;;5075425;28;20174;-82
2021/09/04 03:22:35;;;;;;;9.27;7.25;;;;;;;;;;5075268;28;20244;-83
2021/09/04 03:25:03;;;;;;;9.63;6.65;;;;;;;;;;5075260;28;20246;-82
2021/09/04 03:27:32;;;;;;;10.70;7.53;;;;;;;;;;5074910;28;20194;-82
2021/09/04 03:30:00;;;;;;;8.75;7.68;;;;;;;;;;5075256;28;20262;-82
2021/09/04 03:32:28;;;;;;;9.90;7.57;;;;;;;;;;5074419;28;20576;-83
2021/09/04 03:34:56;;;;;;;9.43;7.60;;;;;;;;;;5075235;28;20203;-83
2021/09/04 03:37:23;;;;;;;7.82;6.88;;;;;;;;;;5074832;28;20225;-82
2021/09/04 03:39:51;;;;;;;9.30;8.27;;;;;;;;;;5074526;28;20189;-82
2021/09/04 03:42:18;;;;;;;10.07;6.82;;;;;;;;;;5074374;28;20201;-82
2021/09/04 03:44:47;;;;;;;8.27;7.45;;;;;;;;;;5074596;28;20185;-82
2021/09/04 03:47:15;;;;;;;8.00;7.10;;;;;;;;;;5074338;28;20217;-83
2021/09/04 03:49:42;;;;;;;7.43;6.72;;;;;;;;;;5074433;28;20209;-83
2021/09/04 03:52:10;;;;;;;7.18;6.47;;;;;;;;;;5074768;28;20177;-83
2021/09/04 03:54:37;;;;;;;8.25;6.65;;;;;;;;;;5033822;28;20251;-82
2021/09/04 03:57:05;;;;;;;6.80;6.20;;;;;;;;;;5034490;28;20214;-82
2021/09/04 03:59:32;;;;;;;6.72;6.13;;;;;;;;;;5034525;28;20182;-82
2021/09/04 04:02:01;;;;;;;9.02;7.72;;;;;;;;;;5034361;28;20202;-83
2021/09/04 04:04:29;;;;;;;6.78;6.07;;;;;;;;;;5034848;28;20186;-82
2021/09/04 04:06:56;;;;;;;6.93;6.30;;;;;;;;;;5034540;28;20226;-82
2021/09/04 04:09:24;;;;;;;8.93;6.70;;;;;;;;;;5033340;28;20213;-82
2021/09/04 04:11:51;;;;;;;8.82;7.40;;;;;;;;;;5033572;28;20201;-82
2021/09/04 04:14:18;;;;;;;11.38;10.18;;;;;;;;;;5033727;28;20206;-81
2021/09/04 04:16:47;;;;;;;12.13;10.93;;;;;;;;;;5033146;28;20226;-82
2021/09/04 04:19:16;;;;;;;10.88;9.63;;;;;;;;;;5033580;28;20574;-83
2021/09/04 04:21:43;;;;;;;10.65;9.55;;;;;;;;;;5033654;28;20213;-82
2021/09/04 04:24:11;;;;;;;9.73;8.75;;;;;;;;;;5033835;28;20197;-83
2021/09/04 04:26:39;;;;;;;8.68;7.80;;;;;;;;;;5034036;28;20225;-82
2021/09/04 04:29:06;;;;;;;9.02;8.13;;;;;;;;;;5034184;28;20668;-83
2021/09/04 04:31:34;;;;;;;8.10;7.32;;;;;;;;;;5034228;28;20206;-83
2021/09/04 04:34:02;;;;;;;8.60;7.68;;;;;;;;;;5033542;28;20615;-83
2021/09/04 04:36:31;;;;;;;7.32;5.65;;;;;;;;;;5033880;28;20229;-82
2021/09/04 04:38:58;;;;;;;7.97;7.22;;;;;;;;;;5034206;28;20230;-83
2021/09/04 04:41:26;;;;;;;9.00;7.65;;;;;;;;;;5033633;28;20202;-82
2021/09/04 04:43:53;;;;;;;6.03;5.53;;;;;;;;;;5034027;28;20210;-82
2021/09/04 04:46:20;;;;;;;9.07;8.18;;;;;;;;;;5033244;28;20222;-82
2021/09/04 04:48:48;;;;;;;7.38;6.68;;;;;;;;;;5033605;28;20202;-82
2021/09/04 04:51:15;;;;;;;7.82;6.93;;;;;;;;;;5033797;28;20675;-82
2021/09/04 04:53:44;;;;;;;7.03;6.32;;;;;;;;;;5058620;28;20228;-82
2021/09/04 04:56:11;;;;;;;6.85;6.25;;;;;;;;;;5072947;28;20698;-81
2021/09/04 04:58:39;;;;;;;6.93;6.32;;;;;;;;;;5073898;28;20231;-83
2021/09/04 05:01:06;;;;;;;6.28;5.68;;;;;;;;;;5073604;28;20185;-82
2021/09/04 05:03:34;;;;;;;6.18;5.68;;;;;;;;;;5073328;28;20220;-83
2021/09/04 05:06:01;;;;;;;7.00;6.45;;;;;;;;;;5073388;28;20303;-82
2021/09/04 05:08:31;;;;;;;6.65;6.05;;;;;;;;;;5074297;28;20201;-82
2021/09/04 05:11:00;;;;;;;6.10;5.50;;;;;;;;;;5092976;28;20200;-83
2021/09/04 05:13:28;;;;;;;5.90;5.40;;;;;;;;;;5093512;28;20200;-82
2021/09/04 05:15:55;;;;;;;6.05;5.47;;;;;;;;;;5093335;28;20293;-82
2021/09/04 05:18:23;;;;;;;4.97;4.57;;;;;;;;;;5093926;28;20276;-81
2021/09/04 05:20:52;;;;;;;4.82;4.38;;;;;;;;;;5093133;28;20725;-82
2021/09/04 05:23:20;;;;;;;5.30;4.80;;;;;;;;;;5092797;28;20261;-82
2021/09/04 05:25:47;;;;;;;6.03;5.53;;;;;;;;;;5092329;28;20591;-82
2021/09/04 05:28:16;;;;;;;5.72;5.18;;;;;;;;;;5093407;28;20197;-83
2021/09/04 05:30:43;;;;;;;6.03;5.43;;;;;;;;;;5092801;28;20205;-82
2021/09/04 05:33:11;;;;;;;5.88;5.38;;;;;;;;;;5093656;28;20185;-83
2021/09/04 05:35:38;;;;;;;5.82;5.30;;;;;;;;;;5094333;28;20224;-83
2021/09/04 05:38:06;;;;;;;6.32;5.72;;;;;;;;;;5098101;28;20239;-83
2021/09/04 05:40:35;;;;;;;6.07;5.47;;;;;;;;;;5097620;28;20668;-82
2021/09/04 05:43:03;;;;;;;6.32;5.70;;;;;;;;;;5098198;28;20223;-83
2021/09/04 05:45:32;;;;;;;6.28;5.68;;;;;;;;;;5097619;28;20228;-84
2021/09/04 05:47:59;;;;;;;6.32;5.22;;;;;;;;;;5097649;28;20207;-83
2021/09/04 05:50:29;;;;;;;6.05;5.55;;;;;;;;;;5097859;28;20193;-83
2021/09/04 05:52:57;;;;;;;5.75;5.25;;;;;;;;;;5097477;28;20249;-82
2021/09/04 05:55:26;;;;;;;4.80;4.35;;;;;;;;;;5097365;28;20291;-83
2021/09/04 05:57:54;;;;;;;5.55;4.75;;;;;;;;;;5097461;28;20214;-83
2021/09/04 06:00:21;;;;;;;5.88;5.38;;;;;;;;;;5097895;28;20204;-84
2021/09/04 06:02:50;;;;;;;4.80;4.40;;;;;;;;;;5097031;28;20720;-83
2021/09/04 06:05:18;;;;;;;6.20;5.60;;;;;;;;;;5096937;28;20200;-83
2021/09/04 06:07:45;;;;;;;6.53;5.88;;;;;;;;;;5096935;28;20212;-83
2021/09/04 06:10:18;;;;;;;5.60;5.03;;;;;;;;;;5097570;28;20181;-82
2021/09/04 06:12:46;;;;;;;5.00;4.50;;;;;;;;;;5097308;28;20192;-83
2021/09/04 06:15:13;;;;;;;5.25;4.75;;;;;;;;;;5097180;28;20212;-83
2021/09/04 06:17:41;;;;;;;5.18;4.70;;;;;;;;;;5096960;28;20537;-83
2021/09/04 06:20:11;;;;;;;6.38;5.78;;;;;;;;;;5097135;28;20204;-82
2021/09/04 06:22:39;;;;;;;7.75;6.28;;;;;;;;;;5096242;28;20607;-82
2021/09/04 06:25:08;;;;;;;6.53;5.85;;;;;;;;;;5096530;28;20204;-83
2021/09/04 06:27:35;;;;;;;5.70;5.20;;;;;;;;;;5096034;28;20215;-83
2021/09/04 06:30:03;;;;;;;5.75;5.25;;;;;;;;;;5096462;28;20670;-82
2021/09/04 06:32:30;;;;;;;5.15;4.75;;;;;;;;;;5096399;28;20204;-83
2021/09/04 06:34:58;;;;;;;6.15;5.55;;;;;;;;;;5096874;28;20653;-84
2021/09/04 06:37:26;;;;;;;5.10;4.70;;;;;;;;;;5096453;28;20600;-81
2021/09/04 06:39:54;;;;;;;5.43;4.82;;;;;;;;;;5096336;28;20650;-83
2021/09/04 06:42:22;;;;;;;4.97;4.47;;;;;;;;;;5096775;28;20184;-82
2021/09/04 06:44:49;;;;;;;5.00;4.55;;;;;;;;;;5096440;28;20224;-82
2021/09/04 06:47:16;;;;;;;5.47;4.97;;;;;;;;;;5096460;28;20224;-83
2021/09/04 06:49:44;;;;;;;5.85;5.30;;;;;;;;;;5096463;28;20219;-83
2021/09/04 06:52:11;;;;;;;4.85;4.20;;;;;;;;;;5096134;28;20196;-82
2021/09/04 06:54:40;;;;;;;4.85;4.45;;;;;;;;;;5096329;28;20181;-82
2021/09/04 06:57:08;;;;;;;6.20;5.57;;;;;;;;;;5096269;28;20220;-84
2021/09/04 06:59:35;;;;;;;5.75;5.25;;;;;;;;;;5096458;28;20185;-82
2021/09/04 07:02:03;;;;;;;4.90;4.45;;;;;;;;;;5096334;28;20205;-83
2021/09/04 07:04:30;;;;;;;5.75;5.25;;;;;;;;;;5096050;28;20213;-83
2021/09/04 07:07:04;;;;;;;4.72;4.32;;;;;;;;;;5096244;28;20220;-83
2021/09/04 07:09:32;;;;;;;6.15;5.28;;;;;;;;;;5095420;28;20692;-83
2021/09/04 07:12:01;;;;;;;5.43;4.95;;;;;;;;;;5095061;28;20836;-81
2021/09/04 07:14:28;;;;;;;5.38;4.88;;;;;;;;;;5095615;28;20203;-84
2021/09/04 07:17:23;;;;;;;5.40;4.90;;;;;;;;;;5096189;28;20595;-84
2021/09/04 07:19:50;;;;;;;4.78;4.38;;;;;;;;;;5093074;28;20211;-85
2021/09/04 07:22:18;;;;;;;5.60;5.07;;;;;;;;;;5096976;28;20196;-84
2021/09/04 07:24:47;;;;;;;5.35;4.95;;;;;;;;;;5095983;28;20216;-84
2021/09/04 07:27:16;;;;;;;6.05;4.88;;;;;;;;;;5096670;28;20600;-81
2021/09/04 07:29:48;;;;;;;6.07;5.47;;;;;;;;;;5095085;28;20189;-87
2021/09/04 07:32:24;;;;;;;5.88;5.28;;;;;;;;;;5095985;28;20580;-85
2021/09/04 07:34:51;;;;;;;4.28;3.97;;;;;;;;;;5095572;28;20613;-84
2021/09/04 07:37:19;;;;;;;5.07;4.60;;;;;;;;;;5095485;28;20220;-85
2021/09/04 07:39:46;;;;;;;6.35;5.75;;;;;;;;;;5095616;28;20201;-84
2021/09/04 07:42:15;;;;;;;4.55;4.15;;;;;;;;;;5095193;28;20196;-84
2021/09/04 07:44:42;;;;;;;5.28;4.70;;;;;;;;;;5094858;28;20595;-83
2021/09/04 07:47:10;;;;;;;5.63;4.93;;;;;;;;;;5095030;28;20226;-85
2021/09/04 07:49:55;;;;;;;4.78;4.32;;;;;;;;;;5093947;28;20200;-85
2021/09/04 07:52:23;;;;;;;4.82;4.43;;;;;;;;;;5095158;28;20200;-84
2021/09/04 07:54:50;;;;;;;5.60;4.97;;;;;;;;;;5093248;28;20689;-85
2021/09/04 07:57:21;;;;;;;4.13;3.83;;;;;;;;;;5075265;28;20718;-85
2021/09/04 07:59:48;;;;;;;4.22;3.85;;;;;;;;;;5090082;28;20204;-84
2021/09/04 08:02:16;;;;;;;3.72;3.42;;;;;;;;;;5095947;28;20214;-84
2021/09/04 08:04:45;;;;;;;4.35;3.95;;;;;;;;;;5094874;28;20693;-84
2021/09/04 08:07:16;;;;;;;5.47;4.97;;;;;;;;;;5095730;28;20281;-86
2021/09/04 08:09:43;;;;;;;5.43;4.93;;;;;;;;;;5095222;28;20208;-85
2021/09/04 08:12:10;;;;;;;5.43;4.93;;;;;;;;;;5094315;28;20548;-85
2021/09/04 08:14:39;;;;;;;4.78;4.38;;;;;;;;;;5094596;28;20196;-84
2021/09/04 08:17:07;;;;;;;5.63;5.03;;;;;;;;;;5095065;28;20596;-85
2021/09/04 08:19:34;;;;;;;4.07;3.42;;;;;;;;;;5095369;28;20253;-84
2021/09/04 08:22:02;;;;;;;5.38;4.88;;;;;;;;;;5093734;28;20207;-84
2021/09/04 08:24:31;;;;;;;5.97;5.38;;;;;;;;;;5094163;28;20226;-83
2021/09/04 08:26:58;;;;;;;5.07;4.57;;;;;;;;;;5095304;28;20220;-85
2021/09/04 08:29:26;;;;;;;5.13;4.63;;;;;;;;;;5095418;28;20204;-83
2021/09/04 08:31:55;;;;;;;3.85;3.53;;;;;;;;;;5095248;28;20196;-85
2021/09/04 08:34:23;;;;;;;5.90;5.38;;;;;;;;;;5095090;28;20200;-84
2021/09/04 08:36:51;;;;;;;3.42;3.13;;;;;;;;;;5095234;28;20235;-85
2021/09/04 08:39:18;;;;;;;4.95;4.50;;;;;;;;;;5089924;28;20203;-84
2021/09/04 08:41:47;;;;;;;6.65;5.95;;;;;;;;;;5081225;28;20189;-85
2021/09/04 08:44:14;;;;;;;5.45;4.95;;;;;;;;;;5074456;28;20204;-84
2021/09/04 08:46:42;;;;;;;6.25;5.68;;;;;;;;;;5075359;28;20217;-83
2021/09/04 08:49:11;;;;;;;5.63;5.13;;;;;;;;;;5075311;28;20201;-85
2021/09/04 08:51:38;;;;;;;6.97;6.38;;;;;;;;;;5076864;28;20192;-84
2021/09/04 08:54:06;;;;;;;5.43;4.88;;;;;;;;;;5094384;28;20886;-84
2021/09/04 08:56:34;;;;;;;5.60;5.10;;;;;;;;;;5095045;28;20224;-83
2021/09/04 08:59:01;;;;;;;6.35;5.35;;;;;;;;;;5095354;28;20194;-83
2021/09/04 09:01:30;;;;;;;4.88;4.47;;;;;;;;;;5077799;28;20197;-84
2021/09/04 09:04:05;;;;;;;5.55;4.97;;;;;;;;;;5093423;28;20197;-84
2021/09/04 09:06:36;;;;;;;4.97;4.40;;;;;;;;;;5094623;28;20208;-84
2021/09/04 09:09:17;;;;;;;6.57;5.78;;;;;;;;;;5094829;28;20203;-84
2021/09/04 09:11:45;;;;;;;6.53;5.93;;;;;;;;;;5099092;28;20202;-84
2021/09/04 09:14:12;;;;;;;5.85;5.35;;;;;;;;;;5098636;28;20207;-85
2021/09/04 09:16:51;;;;;;;5.70;5.10;;;;;;;;;;5098558;28;20215;-85
2021/09/04 09:19:20;;;;;;;5.63;5.13;;;;;;;;;;5097532;28;20260;-85
2021/09/04 09:21:49;;;;;;;6.15;5.55;;;;;;;;;;5098140;28;20200;-84
2021/09/04 09:24:18;;;;;;;6.90;6.20;;;;;;;;;;5098055;28;20192;-85
2021/09/04 09:26:51;;;;;;;6.55;5.63;;;;;;;;;;5098325;28;20220;-84
2021/09/04 09:29:22;;;;;;;5.72;5.22;;;;;;;;;;5098484;28;20670;-85
2021/09/04 09:31:49;;;;;;;3.92;3.63;;;;;;;;;;5097117;28;20658;-84
2021/09/04 09:34:17;;;;;;;5.80;5.20;;;;;;;;;;5097327;28;20456;-85
2021/09/04 09:36:52;;;;;;;5.78;5.28;;;;;;;;;;5097272;28;20227;-85
2021/09/04 09:39:21;;;;;;;5.32;4.72;;;;;;;;;;5097422;28;20577;-84
2021/09/04 09:41:50;;;;;;;6.28;5.68;;;;;;;;;;5097233;28;20689;-86
2021/09/04 09:44:19;;;;;;;5.95;5.35;;;;;;;;;;5097398;28;20196;-84
2021/09/04 09:46:52;;;;;;;4.05;3.67;;;;;;;;;;5098182;28;20306;-85
2021/09/04 09:49:25;;;;;;;6.72;6.13;;;;;;;;;;5097205;28;20659;-85
2021/09/04 09:51:56;;;;;;;5.40;4.70;;;;;;;;;;5098501;28;20204;-85
2021/09/04 09:54:26;;;;;;;5.40;4.90;;;;;;;;;;5096320;28;20227;-84
2021/09/04 09:56:55;;;;;;;5.28;4.88;;;;;;;;;;5096716;28;20212;-84
2021/09/04 09:59:26;;;;;;;5.63;5.03;;;;;;;;;;5096745;28;20204;-85
2021/09/04 10:01:55;;;;;;;6.13;5.63;;;;;;;;;;5097299;28;20541;-85
2021/09/04 10:04:25;;;;;;;6.78;5.53;;;;;;;;;;5097193;28;20204;-84
2021/09/04 10:06:54;;;;;;;4.53;4.13;;;;;;;;;;5096993;28;20599;-84
2021/09/04 10:09:23;;;;;;;3.85;3.50;;;;;;;;;;5097673;28;20223;-84
2021/09/04 10:11:51;;;;;;;6.03;5.43;;;;;;;;;;5096658;28;20226;-84
2021/09/04 10:14:19;;;;;;;6.97;6.28;;;;;;;;;;5097048;28;20212;-84
2021/09/04 10:16:48;;;;;;;5.50;5.00;;;;;;;;;;5096031;28;20222;-85
2021/09/04 10:19:18;;;;;;;6.10;5.55;;;;;;;;;;5096380;28;20243;-85
2021/09/04 10:21:45;;;;;;;5.80;4.78;;;;;;;;;;5095411;28;20570;-85
2021/09/04 10:24:15;;;;;;;6.53;5.78;;;;;;;;;;5096663;28;20196;-84
2021/09/04 10:26:44;;;;;;;7.57;6.75;;;;;;;;;;5097561;28;20230;-84
2021/09/04 10:29:14;;;;;;;4.72;4.10;;;;;;;;;;5097475;28;20204;-84
2021/09/04 10:32:00;;;;;;;7.15;6.45;;;;;;;;;;5095876;28;20291;-85
2021/09/04 10:34:38;;;;;;;7.35;6.03;;;;;;;;;;5097088;28;20200;-86
2021/09/04 10:37:08;;;;;;;8.48;6.18;;;;;;;;;;5096036;28;20307;-85
2021/09/04 10:39:58;;;;;;;6.53;5.90;;;;;;;;;;5097019;28;20333;-84
2021/09/04 10:42:28;;;;;;;6.65;6.03;;;;;;;;;;5095766;28;20230;-86
2021/09/04 10:45:02;;;;;;;7.15;6.45;;;;;;;;;;5095185;28;20199;-84
2021/09/04 10:47:44;;;;;;;6.78;5.53;;;;;;;;;;5096301;28;20219;-84
2021/09/04 10:50:17;;;;;;;5.90;5.32;;;;;;;;;;5096642;28;20203;-84
2021/09/04 10:53:00;;;;;;;6.70;6.03;;;;;;;;;;5095542;28;20216;-85
2021/09/04 10:55:31;;;;;;;8.40;7.05;;;;;;;;;;5095978;28;20311;-85
2021/09/04 10:58:58;;;;;;;6.20;5.43;;;;;;;;;;5097867;28;20295;-87
2021/09/04 11:01:28;;;;;;;6.35;5.72;;;;;;;;;;5094548;28;20208;-85
2021/09/04 11:03:57;;;;;;;6.72;6.07;;;;;;;;;;5095110;28;20345;-85
2021/09/04 11:06:26;;;;;;;7.35;6.65;;;;;;;;;;5094640;28;20232;-85
2021/09/04 11:08:55;;;;;;;7.82;6.82;;;;;;;;;;5094663;28;20196;-86
2021/09/04 11:11:35;;;;;;;8.38;6.57;;;;;;;;;;5094835;28;20197;-85
2021/09/04 11:14:17;;;;;;;7.00;6.40;;;;;;;;;;5095207;28;20204;-86
2021/09/04 11:16:48;;;;;;;8.13;6.72;;;;;;;;;;5094298;28;20257;-86
2021/09/04 11:19:22;;;;;;;6.90;6.20;;;;;;;;;;5094207;28;20204;-85
2021/09/04 11:21:56;;;;;;;7.35;6.65;;;;;;;;;;5094566;28;20581;-85
2021/09/04 11:24:31;;;;;;;6.97;6.25;;;;;;;;;;5094268;28;20211;-85
2021/09/04 11:27:06;;;;;;;8.75;6.65;;;;;;;;;;5094491;28;20224;-86
2021/09/04 11:29:42;;;;;;;5.97;5.47;;;;;;;;;;5093898;28;20206;-85
2021/09/04 11:32:11;;;;;;;7.50;6.15;;;;;;;;;;5093823;28;20200;-85
2021/09/04 11:34:49;;;;;;;6.65;5.97;;;;;;;;;;5093279;28;20193;-86
2021/09/04 11:37:23;;;;;;;7.68;6.97;;;;;;;;;;5094441;28;20227;-84
2021/09/04 11:39:52;;;;;;;5.95;5.35;;;;;;;;;;5094554;28;20214;-85
2021/09/04 11:42:23;;;;;;;7.03;6.32;;;;;;;;;;5094635;28;20200;-86
2021/09/04 11:44:53;;;;;;;6.40;5.80;;;;;;;;;;5095079;28;20204;-85
2021/09/04 11:47:21;;;;;;;6.88;5.93;;;;;;;;;;5095798;28;20220;-86
2021/09/04 11:49:51;;;;;;;7.38;6.65;;;;;;;;;;5093967;28;20203;-85
2021/09/04 11:52:24;;;;;;;7.53;6.30;;;;;;;;;;5093660;28;20196;-85
2021/09/04 11:55:03;;;;;;;5.95;5.38;;;;;;;;;;5093859;28;20197;-86
2021/09/04 11:57:34;;;;;;;7.63;6.65;;;;;;;;;;5093562;28;20199;-85
2021/09/04 12:00:14;;;;;;;7.78;6.50;;;;;;;;;;5093755;28;20204;-85
2021/09/04 12:02:49;;;;;;;8.93;6.47;;;;;;;;;;5094098;28;20192;-86
2021/09/04 12:05:18;;;;;;;7.53;6.82;;;;;;;;;;5093177;28;20199;-86
2021/09/04 12:07:47;;;;;;;7.72;6.97;;;;;;;;;;5093333;28;20226;-86
2021/09/04 12:10:17;;;;;;;7.68;6.78;;;;;;;;;;5093883;28;20210;-86
2021/09/04 12:12:46;;;;;;;9.75;6.80;;;;;;;;;;5093667;28;20659;-86
2021/09/04 12:15:15;;;;;;;9.50;7.20;;;;;;;;;;5093860;28;20237;-86
2021/09/04 12:17:54;;;;;;;8.00;6.57;;;;;;;;;;5093486;28;20200;-86
2021/09/04 12:20:32;;;;;;;7.85;7.05;;;;;;;;;;5093649;28;20200;-87
2021/09/04 12:23:11;;;;;;;7.55;6.72;;;;;;;;;;5092954;28;20192;-85
2021/09/04 12:25:39;;;;;;;6.88;6.20;;;;;;;;;;5093008;28;20219;-87
2021/09/04 12:28:09;;;;;;;7.07;5.95;;;;;;;;;;5093337;28;20223;-86
2021/09/04 12:31:01;;;;;;;6.65;6.05;;;;;;;;;;5092801;28;20211;-86
2021/09/04 12:33:30;;;;;;;7.93;7.05;;;;;;;;;;5092761;28;20200;-86
2021/09/04 12:35:59;;;;;;;6.97;6.00;;;;;;;;;;5092575;28;20216;-87
2021/09/04 12:38:31;;;;;;;7.00;5.53;;;;;;;;;;5092777;28;20209;-86
2021/09/04 12:41:08;;;;;;;7.63;6.63;;;;;;;;;;5092571;28;20550;-86
2021/09/04 12:43:56;;;;;;;8.63;7.68;;;;;;;;;;5092680;28;20199;-86
2021/09/04 12:46:33;;;;;;;7.78;7.00;;;;;;;;;;5092479;28;20586;-87
2021/09/04 12:49:18;;;;;;;7.28;6.60;;;;;;;;;;5092734;28;20207;-86
2021/09/04 12:51:47;;;;;;;7.95;7.15;;;;;;;;;;5092390;28;20680;-87
2021/09/04 12:54:14;;;;;;;8.98;8.07;;;;;;;;;;5092172;28;20323;-86
2021/09/04 12:56:46;;;;;;;7.63;6.93;;;;;;;;;;5092451;28;20299;-86
2021/09/04 12:59:15;;;;;;;8.32;6.90;;;;;;;;;;5092664;28;20570;-87
2021/09/04 13:01:42;;;;;;;8.00;6.65;;;;;;;;;;5092330;28;20681;-87
2021/09/04 13:04:10;;;;;;;8.68;6.72;;;;;;;;;;5092207;28;20551;-87
2021/09/04 13:06:38;;;;;;;6.00;5.40;;;;;;;;;;5092213;28;20232;-86
2021/09/04 13:09:06;;;;;;;7.82;6.95;;;;;;;;;;5092320;28;20655;-86
2021/09/04 13:11:33;;;;;;;6.10;5.50;;;;;;;;;;5092447;28;20200;-86
2021/09/04 13:14:00;;;;;;;7.53;6.82;;;;;;;;;;5092158;28;20215;-86
2021/09/04 13:16:30;;;;;;;7.28;6.57;;;;;;;;;;5091750;28;20246;-87
2021/09/04 13:18:57;;;;;;;7.38;6.60;;;;;;;;;;5092372;28;20651;-87
2021/09/04 13:21:25;;;;;;;8.25;7.45;;;;;;;;;;5092237;28;20204;-87
2021/09/04 13:23:52;;;;;;;7.88;7.07;;;;;;;;;;5092049;28;20200;-86
2021/09/04 13:26:19;;;;;;;6.57;5.97;;;;;;;;;;5092209;28;20212;-86
2021/09/04 13:28:47;;;;;;;7.53;6.82;;;;;;;;;;5092010;28;20230;-86
2021/09/04 13:31:14;;;;;;;7.22;6.53;;;;;;;;;;5091893;28;20666;-87
2021/09/04 13:33:43;;;;;;;7.05;6.30;;;;;;;;;;5091699;28;20207;-87
2021/09/04 13:36:10;;;;;;;6.40;5.28;;;;;;;;;;5092005;28;20220;-86
2021/09/04 13:38:38;;;;;;;6.30;5.68;;;;;;;;;;5092259;28;20203;-87
2021/09/04 13:41:05;;;;;;;7.40;6.70;;;;;;;;;;5092327;28;20291;-87
2021/09/04 13:43:33;;;;;;;8.65;7.63;;;;;;;;;;5091694;28;20200;-87
2021/09/04 13:46:00;;;;;;;6.80;6.20;;;;;;;;;;5091710;28;20220;-87
2021/09/04 13:48:28;;;;;;;6.38;5.78;;;;;;;;;;5091974;28;20227;-85
2021/09/04 13:50:56;;;;;;;8.13;6.53;;;;;;;;;;5092027;28;20212;-86
2021/09/04 13:53:24;;;;;;;6.70;6.03;;;;;;;;;;5091696;28;20220;-86
2021/09/04 13:55:51;;;;;;;6.78;6.18;;;;;;;;;;5091718;28;20231;-86
2021/09/04 13:58:18;;;;;;;7.35;6.65;;;;;;;;;;5094962;28;20199;-87
2021/09/04 14:00:46;;;;;;;6.80;6.05;;;;;;;;;;5095644;28;20565;-86
2021/09/04 14:03:13;;;;;;;10.20;6.60;;;;;;;;;;5095792;28;20574;-86
2021/09/04 14:05:40;;;;;;;7.65;6.30;;;;;;;;;;5095113;28;20231;-86
2021/09/04 14:08:09;;;;;;;5.40;4.90;;;;;;;;;;5095184;28;20227;-87
2021/09/04 14:10:37;;;;;;;5.38;4.88;;;;;;;;;;5095148;28;20197;-86
2021/09/04 14:13:04;;;;;;;7.57;6.40;;;;;;;;;;5095752;28;20199;-86
2021/09/04 14:15:31;;;;;;;8.02;6.75;;;;;;;;;;5095394;28;20729;-87
2021/09/04 14:17:59;;;;;;;8.55;7.75;;;;;;;;;;5095427;28;20576;-87
2021/09/04 14:20:26;;;;;;;7.47;6.78;;;;;;;;;;5095254;28;20200;-87
2021/09/04 14:22:54;;;;;;;7.70;6.75;;;;;;;;;;5094909;28;20692;-86
2021/09/04 14:25:23;;;;;;;7.70;6.90;;;;;;;;;;5095021;28;20204;-86
2021/09/04 14:27:50;;;;;;;7.57;6.95;;;;;;;;;;5094849;28;20224;-86
2021/09/04 14:30:17;;;;;;;8.00;7.28;;;;;;;;;;5095280;28;20211;-87
2021/09/04 14:32:45;;;;;;;9.45;7.75;;;;;;;;;;5095068;28;20201;-87
2021/09/04 14:35:13;;;;;;;7.35;6.65;;;;;;;;;;5094851;28;20193;-87
2021/09/04 14:37:41;;;;;;;7.78;6.85;;;;;;;;;;5094758;28;20666;-87
2021/09/04 14:40:10;;;;;;;7.20;6.50;;;;;;;;;;5094737;28;20208;-87
2021/09/04 14:42:40;;;;;;;6.60;5.80;;;;;;;;;;5095042;28;20200;-87
2021/09/04 14:45:09;;;;;;;8.25;7.07;;;;;;;;;;5094836;28;20200;-86
2021/09/04 14:47:36;;;;;;;9.25;6.40;;;;;;;;;;5094280;28;20222;-86
2021/09/04 14:50:04;;;;;;;6.32;5.72;;;;;;;;;;5094714;28;20200;-86
2021/09/04 14:52:31;;;;;;;7.57;6.97;;;;;;;;;;5094363;28;20211;-86
2021/09/04 14:54:59;;;;;;;4.72;4.32;;;;;;;;;;5094108;28;20210;-86